createdAt,value
2022-10-16T00:01:31.712Z,100874.72
2022-10-16T00:04:00.720Z,100867.47
2022-10-16T00:06:33.656Z,100866.56
2022-10-16T00:09:01.820Z,100878.19
2022-10-16T00:11:34.104Z,100871.84
2022-10-16T00:14:04.194Z,100863.78
2022-10-16T00:16:32.496Z,100862.00
2022-10-16T00:19:00.228Z,100869.25
2022-10-16T00:21:31.156Z,100878.22
2022-10-16T00:24:01.136Z,100866.59
2022-10-16T00:26:30.398Z,100874.72
2022-10-16T00:28:58.198Z,100878.38
2022-10-16T00:31:27.092Z,100880.09
2022-10-16T00:33:55.136Z,100890.78
2022-10-16T00:36:24.934Z,100875.53
2022-10-16T00:38:55.757Z,100873.75
2022-10-16T00:41:25.800Z,100879.13
2022-10-16T00:43:55.475Z,100876.44
2022-10-16T00:46:26.412Z,100873.81
2022-10-16T00:48:59.314Z,100873.91
2022-10-16T00:51:34.519Z,100872.22
2022-10-16T00:54:05.777Z,100878.47
2022-10-16T00:56:34.663Z,100871.34
2022-10-16T00:59:05.783Z,100871.47
2022-10-16T01:01:33.538Z,100869.66
2022-10-16T01:04:01.241Z,100880.41
2022-10-16T01:06:38.428Z,100870.66
2022-10-16T01:09:16.383Z,100868.03
2022-10-16T01:11:51.299Z,100870.69
2022-10-16T01:14:28.777Z,100872.63
2022-10-16T01:17:03.712Z,100874.38
2022-10-16T01:20:03.385Z,100869.03
2022-10-16T01:22:42.360Z,100878.91
2022-10-16T01:25:18.859Z,100882.50
2022-10-16T01:27:50.426Z,100882.47
2022-10-16T01:30:22.963Z,100879.84
2022-10-16T01:32:54.896Z,100878.06
2022-10-16T01:35:27.267Z,100877.25
2022-10-16T01:38:00.791Z,100869.22
2022-10-16T01:40:30.770Z,100875.50
2022-10-16T01:43:04.586Z,100879.09
2022-10-16T01:45:34.788Z,100874.63
2022-10-16T01:48:05.138Z,100863.78
2022-10-16T01:50:34.991Z,100860.97
2022-10-16T01:53:05.544Z,100860.81
2022-10-16T01:55:38.051Z,100863.44
2022-10-16T01:58:09.101Z,100873.94
2022-10-16T02:00:39.375Z,100866.75
2022-10-16T02:03:08.448Z,100866.75
2022-10-16T02:05:42.510Z,100873.06
2022-10-16T02:08:10.668Z,100890.91
2022-10-16T02:10:39.010Z,100888.22
2022-10-16T02:13:14.031Z,100891.75
2022-10-16T02:15:41.937Z,100892.66
2022-10-16T02:18:11.421Z,100896.25
2022-10-16T02:20:52.962Z,100899.03
2022-10-16T02:23:26.553Z,100896.38
2022-10-16T02:25:56.286Z,100897.34
2022-10-16T02:28:35.943Z,100898.34
2022-10-16T02:31:06.609Z,100902.78
2022-10-16T02:33:37.290Z,100896.38
2022-10-16T02:36:05.211Z,100892.00
2022-10-16T02:38:33.375Z,100892.91
2022-10-16T02:41:01.315Z,100894.75
2022-10-16T02:43:30.462Z,100885.81
2022-10-16T02:45:58.356Z,100887.63
2022-10-16T02:48:26.032Z,100884.88
2022-10-16T02:50:53.699Z,100887.44
2022-10-16T02:53:21.386Z,100885.63
2022-10-16T02:55:49.128Z,100880.25
2022-10-16T02:58:16.884Z,100897.28
2022-10-16T03:00:46.040Z,100892.81
2022-10-16T03:03:13.819Z,100894.69
2022-10-16T03:05:41.585Z,100893.78
2022-10-16T03:08:09.282Z,100909.84
2022-10-16T03:10:36.951Z,100901.03
2022-10-16T03:13:04.948Z,100897.44
2022-10-16T03:15:32.763Z,100910.88
2022-10-16T03:18:01.869Z,100903.72
2022-10-16T03:20:29.640Z,100892.06
2022-10-16T03:22:57.399Z,100896.53
2022-10-16T03:25:25.457Z,100893.88
2022-10-16T03:27:53.114Z,100893.00
2022-10-16T03:30:20.825Z,100889.44
2022-10-16T03:32:48.887Z,100892.06
2022-10-16T03:35:18.016Z,100890.28
2022-10-16T03:37:45.736Z,100895.53
2022-10-16T03:40:13.918Z,100897.44
2022-10-16T03:42:41.612Z,100889.34
2022-10-16T03:45:09.963Z,100896.56
2022-10-16T03:47:37.666Z,100902.81
2022-10-16T03:50:06.703Z,100906.50
2022-10-16T03:52:35.816Z,100915.53
2022-10-16T03:55:03.574Z,100921.75
2022-10-16T03:57:31.316Z,100919.09
2022-10-16T03:59:58.982Z,100914.66
2022-10-16T04:02:26.959Z,100920.00
2022-10-16T04:04:54.663Z,100918.09
2022-10-16T04:07:22.455Z,100915.41
2022-10-16T04:09:53.041Z,100913.72
2022-10-16T04:12:20.785Z,100917.41
2022-10-16T04:14:48.469Z,100925.44
2022-10-16T04:17:16.143Z,100924.59
2022-10-16T04:19:43.868Z,100925.44
2022-10-16T04:22:11.740Z,100929.06
2022-10-16T04:24:39.448Z,100923.69
2022-10-16T04:27:08.534Z,100925.53
2022-10-16T04:29:36.255Z,100936.19
2022-10-16T04:32:03.965Z,100935.38
2022-10-16T04:34:31.623Z,100936.28
2022-10-16T04:36:59.434Z,100939.91
2022-10-16T04:39:27.092Z,100951.56
2022-10-16T04:41:54.733Z,100943.47
2022-10-16T04:44:23.984Z,100954.28
2022-10-16T04:46:58.647Z,100952.44
2022-10-16T04:49:26.311Z,100951.50
2022-10-16T04:51:54.004Z,100961.31
2022-10-16T04:54:21.678Z,100955.03
2022-10-16T04:56:51.325Z,100959.66
2022-10-16T04:59:19.981Z,100966.00
2022-10-16T05:01:50.481Z,100965.13
2022-10-16T05:04:18.243Z,100969.66
2022-10-16T05:06:45.930Z,100971.38
2022-10-16T05:09:13.616Z,100974.13
2022-10-16T05:11:41.387Z,100969.59
2022-10-16T05:14:09.056Z,100979.50
2022-10-16T05:16:36.743Z,100981.28
2022-10-16T05:19:26.245Z,100987.66
2022-10-16T05:21:53.500Z,100991.22
2022-10-16T05:24:21.165Z,100992.03
2022-10-16T05:26:48.838Z,101002.72
2022-10-16T05:29:16.723Z,100996.44
2022-10-16T05:31:44.359Z,100992.03
2022-10-16T05:34:13.498Z,101002.81
2022-10-16T05:36:41.139Z,101000.19
2022-10-16T05:39:08.835Z,101003.00
2022-10-16T05:41:36.482Z,101009.25
2022-10-16T05:44:06.885Z,101007.59
2022-10-16T05:46:34.750Z,101007.63
2022-10-16T05:49:03.091Z,101004.16
2022-10-16T05:51:32.577Z,101012.19
2022-10-16T05:54:00.306Z,101007.72
2022-10-16T05:56:27.964Z,101023.81
2022-10-16T05:58:55.647Z,101028.44
2022-10-16T06:01:25.218Z,101037.34
2022-10-16T06:03:53.448Z,101040.09
2022-10-16T06:06:22.755Z,101042.78
2022-10-16T06:08:54.987Z,101047.31
2022-10-16T06:11:24.438Z,101040.06
2022-10-16T06:13:53.244Z,101041.84
2022-10-16T06:16:21.537Z,101041.84
2022-10-16T06:18:49.544Z,101048.09
2022-10-16T06:21:22.762Z,101056.03
2022-10-16T06:23:51.932Z,101049.72
2022-10-16T06:26:23.546Z,101055.16
2022-10-16T06:28:51.655Z,101066.78
2022-10-16T06:31:20.078Z,101076.69
2022-10-16T06:33:48.017Z,101073.94
2022-10-16T06:36:17.909Z,101066.66
2022-10-16T06:38:46.779Z,101083.66
2022-10-16T06:41:17.953Z,101085.44
2022-10-16T06:43:46.485Z,101083.69
2022-10-16T06:46:16.451Z,101093.69
2022-10-16T06:48:44.508Z,101092.78
2022-10-16T06:51:14.260Z,101107.09
2022-10-16T06:54:01.874Z,101113.50
2022-10-16T06:56:32.972Z,101119.00
2022-10-16T06:59:01.344Z,101123.47
2022-10-16T07:01:29.592Z,101138.69
2022-10-16T07:03:57.745Z,101136.09
2022-10-16T07:06:27.361Z,101147.81
2022-10-16T07:08:55.807Z,101147.84
2022-10-16T07:11:25.227Z,101162.22
2022-10-16T07:13:55.896Z,101159.50
2022-10-16T07:16:26.406Z,101179.22
2022-10-16T07:18:59.281Z,101164.97
2022-10-16T07:21:29.634Z,101170.31
2022-10-16T07:23:59.097Z,101162.19
2022-10-16T07:26:28.444Z,101172.91
2022-10-16T07:28:57.744Z,101168.25
2022-10-16T07:31:26.278Z,101178.81
2022-10-16T07:33:54.435Z,101173.28
2022-10-16T07:36:23.262Z,101179.47
2022-10-16T07:38:52.946Z,101185.66
2022-10-16T07:41:23.198Z,101188.28
2022-10-16T07:43:51.801Z,101187.34
2022-10-16T07:46:21.860Z,101200.63
2022-10-16T07:48:49.872Z,101200.53
2022-10-16T07:51:19.732Z,101209.44
2022-10-16T07:53:47.980Z,101211.19
2022-10-16T07:56:16.572Z,101215.63
2022-10-16T07:58:44.480Z,101225.44
2022-10-16T08:01:15.170Z,101219.97
2022-10-16T08:03:45.119Z,101236.06
2022-10-16T08:06:12.914Z,101225.22
2022-10-16T08:08:40.650Z,101226.94
2022-10-16T08:11:09.020Z,101245.75
2022-10-16T08:13:36.818Z,101239.47
2022-10-16T08:16:08.691Z,101251.94
2022-10-16T08:18:37.554Z,101252.78
2022-10-16T08:21:11.583Z,101256.31
2022-10-16T08:23:39.294Z,101259.84
2022-10-16T08:26:08.770Z,101275.06
2022-10-16T08:28:37.399Z,101274.09
2022-10-16T08:31:10.539Z,101273.25
2022-10-16T08:33:38.590Z,101278.50
2022-10-16T08:36:08.514Z,101281.13
2022-10-16T08:38:36.407Z,101281.06
2022-10-16T08:41:37.121Z,101285.44
2022-10-16T08:44:32.628Z,101298.75
2022-10-16T08:47:10.393Z,101295.94
2022-10-16T08:49:43.760Z,101297.56
2022-10-16T08:52:15.123Z,101301.84
2022-10-16T08:54:47.105Z,101297.25
2022-10-16T08:57:21.381Z,101307.06
2022-10-16T08:59:50.945Z,101309.69
2022-10-16T09:02:27.509Z,101312.25
2022-10-16T09:05:05.608Z,101318.44
2022-10-16T09:07:42.277Z,101319.19
2022-10-16T09:10:22.780Z,101302.88
2022-10-16T09:12:57.428Z,101316.13
2022-10-16T09:15:34.256Z,101321.31
2022-10-16T09:18:13.011Z,101322.09
2022-10-16T09:20:51.027Z,101322.00
2022-10-16T09:23:24.511Z,101329.97
2022-10-16T09:25:52.275Z,101326.22
2022-10-16T09:28:20.931Z,101336.88
2022-10-16T09:30:50.740Z,101329.47
2022-10-16T09:33:20.183Z,101341.94
2022-10-16T09:35:50.970Z,101340.03
2022-10-16T09:38:29.022Z,101334.34
2022-10-16T09:40:59.197Z,101330.56
2022-10-16T09:43:36.747Z,101336.03
2022-10-16T09:46:06.790Z,101336.84
2022-10-16T09:48:39.524Z,101327.72
2022-10-16T09:51:18.081Z,101339.13
2022-10-16T09:53:48.475Z,101337.97
2022-10-16T09:56:24.831Z,101336.81
2022-10-16T09:58:53.721Z,101336.81
2022-10-16T10:01:22.576Z,101339.41
2022-10-16T10:03:51.079Z,101339.31
2022-10-16T10:06:23.794Z,101349.16
2022-10-16T10:09:02.082Z,101352.06
2022-10-16T10:11:45.426Z,101344.06
2022-10-16T10:14:22.672Z,101340.47
2022-10-16T10:16:50.558Z,101340.34
2022-10-16T10:19:20.254Z,101341.91
2022-10-16T10:21:48.737Z,101347.09
2022-10-16T10:24:19.308Z,101350.59
2022-10-16T10:26:54.614Z,101359.47
2022-10-16T10:29:33.115Z,101348.44
2022-10-16T10:32:12.804Z,101346.50
2022-10-16T10:35:16.415Z,101353.53
2022-10-16T10:38:00.271Z,101349.75
2022-10-16T10:40:41.932Z,101357.66
2022-10-16T10:43:20.803Z,101363.72
2022-10-16T10:45:50.138Z,101359.94
2022-10-16T10:48:42.987Z,101353.41
2022-10-16T10:51:15.481Z,101352.44
2022-10-16T10:53:52.113Z,101361.25
2022-10-16T10:56:41.265Z,101364.81
2022-10-16T10:59:41.769Z,101365.63
2022-10-16T11:02:20.071Z,101364.50
2022-10-16T11:05:21.402Z,101365.09
2022-10-16T11:07:54.071Z,101357.66
2022-10-16T11:10:26.987Z,101363.09
2022-10-16T11:13:02.864Z,101361.56
2022-10-16T11:15:34.065Z,101365.53
2022-10-16T11:18:08.084Z,101368.41
2022-10-16T11:20:39.721Z,101362.94
2022-10-16T11:23:13.831Z,101371.78
2022-10-16T11:25:42.114Z,101373.38
2022-10-16T11:28:14.312Z,101371.38
2022-10-16T11:30:49.072Z,101391.00
2022-10-16T11:33:32.347Z,101380.22
2022-10-16T11:36:08.238Z,101373.16
2022-10-16T11:38:43.475Z,101373.19
2022-10-16T11:41:22.853Z,101375.16
2022-10-16T11:44:18.281Z,101376.47
2022-10-16T11:47:00.596Z,101380.25
2022-10-16T11:49:39.794Z,101377.53
2022-10-16T11:54:52.365Z,101381.53
2022-10-16T11:57:25.357Z,101382.25
2022-10-16T11:59:59.932Z,101392.84
2022-10-16T12:02:46.183Z,101396.13
2022-10-16T12:05:25.930Z,101393.06
2022-10-16T12:08:03.613Z,101404.78
2022-10-16T12:13:32.542Z,101403.28
2022-10-16T12:16:22.460Z,101403.03
2022-10-16T12:18:51.396Z,101405.97
2022-10-16T12:21:20.911Z,101406.31
2022-10-16T12:23:51.125Z,101402.28
2022-10-16T12:26:26.975Z,101400.44
2022-10-16T12:28:55.360Z,101402.63
2022-10-16T12:31:25.227Z,101403.28
2022-10-16T12:34:00.614Z,101395.72
2022-10-16T12:36:31.568Z,101399.69
2022-10-16T12:39:00.425Z,101403.28
2022-10-16T12:41:30.368Z,101403.09
2022-10-16T12:43:59.331Z,101413.88
2022-10-16T12:46:41.404Z,101399.25
2022-10-16T12:49:31.004Z,101399.06
2022-10-16T12:51:59.310Z,101395.38
2022-10-16T12:54:31.685Z,101395.38
2022-10-16T12:57:06.675Z,101401.81
2022-10-16T12:59:44.306Z,101406.34
2022-10-16T13:02:38.464Z,101402.53
2022-10-16T13:05:23.592Z,101403.34
2022-10-16T13:08:03.483Z,101405.06
2022-10-16T13:10:41.471Z,101404.38
2022-10-16T13:13:26.081Z,101407.38
2022-10-16T13:16:04.269Z,101402.88
2022-10-16T13:18:45.473Z,101396.25
2022-10-16T13:21:26.748Z,101405.88
2022-10-16T13:24:04.132Z,101407.53
2022-10-16T13:26:41.603Z,101413.78
2022-10-16T13:29:09.388Z,101415.31
2022-10-16T13:31:40.973Z,101423.69
2022-10-16T13:34:16.531Z,101423.16
2022-10-16T13:36:51.191Z,101427.25
2022-10-16T13:39:25.259Z,101420.38
2022-10-16T13:42:08.947Z,101419.63
2022-10-16T13:44:43.182Z,101419.56
2022-10-16T13:47:18.852Z,101418.53
2022-10-16T13:49:48.849Z,101421.13
2022-10-16T13:52:22.238Z,101424.69
2022-10-16T13:54:50.169Z,101428.06
2022-10-16T13:57:27.599Z,101418.69
2022-10-16T13:59:55.850Z,101413.78
2022-10-16T14:02:28.925Z,101418.78
2022-10-16T14:04:59.709Z,101418.50
2022-10-16T14:07:29.966Z,101419.09
2022-10-16T14:10:03.797Z,101421.75
2022-10-16T14:12:31.827Z,101435.41
2022-10-16T14:15:01.698Z,101438.56
2022-10-16T14:17:31.546Z,101438.94
2022-10-16T14:20:02.599Z,101446.50
2022-10-16T14:22:34.696Z,101443.16
2022-10-16T14:25:02.942Z,101441.53
2022-10-16T14:27:34.514Z,101432.53
2022-10-16T14:30:17.396Z,101423.38
2022-10-16T14:32:56.165Z,101411.50
2022-10-16T14:35:31.801Z,101418.44
2022-10-16T14:38:01.921Z,101414.47
2022-10-16T14:40:32.495Z,101430.38
2022-10-16T14:43:01.546Z,101431.97
2022-10-16T14:45:32.353Z,101428.41
2022-10-16T14:48:02.351Z,101430.28
2022-10-16T14:50:31.740Z,101428.56
2022-10-16T14:53:00.553Z,101431.38
2022-10-16T14:55:28.397Z,101437.91
2022-10-16T14:57:59.590Z,101421.72
2022-10-16T15:00:28.901Z,101426.34
2022-10-16T15:02:56.593Z,101420.97
2022-10-16T15:05:26.949Z,101417.38
2022-10-16T15:07:56.945Z,101430.03
2022-10-16T15:10:26.320Z,101426.56
2022-10-16T15:12:54.264Z,101411.34
2022-10-16T15:15:35.065Z,101413.31
2022-10-16T15:18:03.645Z,101414.34
2022-10-16T15:20:34.677Z,101419.81
2022-10-16T15:23:05.081Z,101419.94
2022-10-16T15:25:36.882Z,101419.16
2022-10-16T15:28:05.974Z,101408.38
2022-10-16T15:30:33.801Z,101409.22
2022-10-16T15:33:01.580Z,101413.88
2022-10-16T15:35:29.632Z,101419.28
2022-10-16T15:37:57.398Z,101418.44
2022-10-16T15:40:26.460Z,101411.28
2022-10-16T15:42:54.215Z,101393.28
2022-10-16T15:45:21.906Z,101403.31
2022-10-16T15:47:49.711Z,101400.78
2022-10-16T15:50:18.131Z,101403.66
2022-10-16T15:52:46.162Z,101394.69
2022-10-16T15:55:15.261Z,101391.28
2022-10-16T15:57:44.332Z,101394.16
2022-10-16T16:00:15.188Z,101395.19
2022-10-16T16:02:43.573Z,101403.41
2022-10-16T16:05:12.342Z,101403.63
2022-10-16T16:07:41.230Z,101401.13
2022-10-16T16:10:11.681Z,101396.69
2022-10-16T16:12:40.250Z,101397.72
2022-10-16T16:15:11.177Z,101405.94
2022-10-16T16:17:39.163Z,101414.22
2022-10-16T16:20:08.567Z,101409.94
2022-10-16T16:22:36.181Z,101410.06
2022-10-16T16:25:03.884Z,101407.47
2022-10-16T16:27:34.442Z,101412.97
2022-10-16T16:30:05.039Z,101408.59
2022-10-16T16:32:34.122Z,101410.53
2022-10-16T16:35:04.405Z,101414.28
2022-10-16T16:37:32.224Z,101419.03
2022-10-16T16:40:00.411Z,101425.41
2022-10-16T16:42:28.394Z,101421.00
2022-10-16T16:44:56.259Z,101432.75
2022-10-16T16:47:25.608Z,101422.03
2022-10-16T16:49:54.775Z,101426.66
2022-10-16T16:52:25.316Z,101423.22
2022-10-16T16:54:53.337Z,101425.16
2022-10-16T16:57:21.260Z,101427.13
2022-10-16T16:59:54.862Z,101433.47
2022-10-16T17:02:22.624Z,101438.94
2022-10-16T17:04:50.321Z,101448.91
2022-10-16T17:07:24.084Z,101449.91
2022-10-16T17:09:52.098Z,101449.97
2022-10-16T17:12:19.864Z,101451.84
2022-10-16T17:14:47.585Z,101447.41
2022-10-16T17:17:15.257Z,101448.34
2022-10-16T17:19:42.895Z,101440.25
2022-10-16T17:22:10.594Z,101439.41
2022-10-16T17:24:39.808Z,101451.16
2022-10-16T17:27:07.433Z,101448.53
2022-10-16T17:29:35.136Z,101453.13
2022-10-16T17:32:02.802Z,101464.03
2022-10-16T17:34:32.598Z,101467.78
2022-10-16T17:37:00.281Z,101468.69
2022-10-16T17:39:28.043Z,101475.00
2022-10-16T17:41:59.151Z,101465.97
2022-10-16T17:44:26.805Z,101463.25
2022-10-16T17:46:59.219Z,101462.34
2022-10-16T17:49:26.709Z,101468.69
2022-10-16T17:51:55.649Z,101472.28
2022-10-16T17:54:23.354Z,101477.69
2022-10-16T17:56:51.000Z,101463.31
2022-10-16T17:59:22.979Z,101458.72
2022-10-16T18:01:50.798Z,101454.19
2022-10-16T18:04:18.794Z,101461.41
2022-10-16T18:06:47.707Z,101451.50
2022-10-16T18:09:18.054Z,101446.09
2022-10-16T18:11:45.955Z,101450.56
2022-10-16T18:14:18.367Z,101447.97
2022-10-16T18:16:47.535Z,101447.16
2022-10-16T18:19:24.458Z,101444.47
2022-10-16T18:21:52.717Z,101437.31
2022-10-16T18:24:20.858Z,101442.78
2022-10-16T18:26:50.649Z,101440.16
2022-10-16T18:29:18.312Z,101443.75
2022-10-16T18:31:47.336Z,101451.81
2022-10-16T18:34:15.081Z,101454.47
2022-10-16T18:36:43.520Z,101459.84
2022-10-16T18:39:13.619Z,101466.13
2022-10-16T18:41:44.646Z,101461.66
2022-10-16T18:44:13.700Z,101471.56
2022-10-16T18:46:42.111Z,101473.34
2022-10-16T18:49:11.345Z,101479.59
2022-10-16T18:51:40.776Z,101485.91
2022-10-16T18:54:11.007Z,101480.56
2022-10-16T18:56:39.299Z,101477.91
2022-10-16T18:59:09.197Z,101472.56
2022-10-16T19:01:39.296Z,101484.31
2022-10-16T19:04:09.402Z,101512.09
2022-10-16T19:06:40.611Z,101540.84
2022-10-16T19:09:08.711Z,101562.38
2022-10-16T19:11:41.300Z,101547.09
2022-10-16T19:14:09.754Z,101552.59
2022-10-16T19:16:38.074Z,101556.28
2022-10-16T19:19:07.847Z,101544.69
2022-10-16T19:21:39.941Z,101531.28
2022-10-16T19:24:08.245Z,101521.53
2022-10-16T19:26:38.234Z,101531.53
2022-10-16T19:29:09.250Z,101534.31
2022-10-16T19:31:37.094Z,101552.31
2022-10-16T19:34:06.400Z,101541.56
2022-10-16T19:36:35.820Z,101547.06
2022-10-16T19:39:07.109Z,101557.00
2022-10-16T19:41:37.028Z,101547.97
2022-10-16T19:44:06.697Z,101555.25
2022-10-16T19:46:34.413Z,101548.97
2022-10-16T19:49:04.877Z,101550.78
2022-10-16T19:51:33.130Z,101537.34
2022-10-16T19:54:02.462Z,101544.56
2022-10-16T19:56:33.531Z,101538.25
2022-10-16T19:59:01.433Z,101535.56
2022-10-16T20:01:31.931Z,101522.97
2022-10-16T20:04:00.611Z,101529.25
2022-10-16T20:06:28.294Z,101538.28
2022-10-16T20:08:58.096Z,101534.75
2022-10-16T20:11:27.982Z,101533.00
2022-10-16T20:13:57.452Z,101535.66
2022-10-16T20:16:26.686Z,101530.25
2022-10-16T20:18:56.910Z,101522.22
2022-10-16T20:21:27.589Z,101532.13
2022-10-16T20:23:55.770Z,101532.16
2022-10-16T20:26:25.920Z,101540.22
2022-10-16T20:28:55.429Z,101528.47
2022-10-16T20:31:35.703Z,101534.78
2022-10-16T20:34:05.907Z,101530.31
2022-10-16T20:36:33.949Z,101539.38
2022-10-16T20:39:01.985Z,101542.97
2022-10-16T20:41:29.773Z,101536.72
2022-10-16T20:43:57.706Z,101535.84
2022-10-16T20:46:28.927Z,101533.16
2022-10-16T20:49:11.305Z,101526.88
2022-10-16T20:51:45.488Z,101526.88
2022-10-16T20:54:13.297Z,101524.19
2022-10-16T20:56:41.021Z,101525.97
2022-10-16T20:59:08.689Z,101528.66
2022-10-16T21:01:37.781Z,101527.75
2022-10-16T21:04:07.552Z,101527.78
2022-10-16T21:06:37.283Z,101517.88
2022-10-16T21:09:06.762Z,101519.66
2022-10-16T21:11:36.801Z,101520.53
2022-10-16T21:14:06.323Z,101519.66
2022-10-16T21:16:34.290Z,101525.97
2022-10-16T21:19:03.669Z,101526.03
2022-10-16T21:21:34.216Z,101525.13
2022-10-16T21:24:02.025Z,101527.78
2022-10-16T21:26:30.913Z,101519.69
2022-10-16T21:29:00.469Z,101518.78
2022-10-16T21:31:28.803Z,101516.09
2022-10-16T21:33:56.819Z,101508.06
2022-10-16T21:36:27.996Z,101512.63
2022-10-16T21:38:56.415Z,101511.78
2022-10-16T21:41:26.151Z,101510.03
2022-10-16T21:43:54.711Z,101508.31
2022-10-16T21:46:26.482Z,101501.19
2022-10-16T21:48:54.262Z,101498.53
2022-10-16T21:51:22.277Z,101494.13
2022-10-16T21:53:51.295Z,101495.94
2022-10-16T21:56:19.471Z,101493.31
2022-10-16T21:58:47.206Z,101497.88
2022-10-16T22:01:20.185Z,101497.91
2022-10-16T22:03:48.353Z,101492.56
2022-10-16T22:06:17.892Z,101493.50
2022-10-16T22:08:49.245Z,101498.06
2022-10-16T22:11:22.284Z,101499.06
2022-10-16T22:13:54.289Z,101492.84
2022-10-16T22:16:26.177Z,101494.75
2022-10-16T22:18:54.654Z,101492.94
2022-10-16T22:21:22.370Z,101503.75
2022-10-16T22:23:50.078Z,101495.78
2022-10-16T22:26:19.505Z,101497.66
2022-10-16T22:28:47.231Z,101497.69
2022-10-16T22:31:16.132Z,101497.69
2022-10-16T22:33:44.307Z,101493.25
2022-10-16T22:36:13.868Z,101500.38
2022-10-16T22:38:42.214Z,101496.81
2022-10-16T22:41:11.880Z,101493.25
2022-10-16T22:43:42.995Z,101490.63
2022-10-16T22:46:13.422Z,101496.81
2022-10-16T22:48:41.691Z,101493.22
2022-10-16T22:51:09.984Z,101490.44
2022-10-16T22:53:37.646Z,101495.78
2022-10-16T22:56:05.436Z,101493.94
2022-10-16T22:58:33.833Z,101497.44
2022-10-16T23:01:03.116Z,101500.06
2022-10-16T23:03:30.800Z,101494.59
2022-10-16T23:05:58.461Z,101500.00
2022-10-16T23:08:26.069Z,101500.84
2022-10-16T23:10:53.765Z,101502.59
2022-10-16T23:13:21.444Z,101498.91
2022-10-16T23:15:49.099Z,101498.91
2022-10-16T23:18:18.073Z,101497.97
2022-10-16T23:20:45.709Z,101502.44
2022-10-16T23:23:13.386Z,101505.09
2022-10-16T23:25:46.823Z,101511.34
2022-10-16T23:30:47.739Z,101514.94
2022-10-16T23:33:15.397Z,101510.41
2022-10-16T23:35:44.415Z,101507.75
2022-10-16T23:38:12.208Z,101504.19
2022-10-16T23:40:39.885Z,101503.31
2022-10-16T23:43:07.628Z,101504.25
2022-10-16T23:45:35.354Z,101496.22
2022-10-16T23:48:03.032Z,101500.78
2022-10-16T23:50:30.744Z,101490.06
2022-10-16T23:52:59.828Z,101485.66
2022-10-16T23:55:27.583Z,101486.59
2022-10-16T23:57:55.243Z,101485.75
